createdAt,value
2018-08-30T00:00:21.707Z,1014.78
2018-08-30T00:01:21.192Z,1014.78
2018-08-30T00:02:21.661Z,1014.71
2018-08-30T00:03:21.277Z,1014.77
2018-08-30T00:04:43.371Z,1014.72
2018-08-30T00:06:05.126Z,1014.74
2018-08-30T00:07:27.165Z,1014.69
2018-08-30T00:08:49.157Z,1014.74
2018-08-30T00:09:49.746Z,1014.71
2018-08-30T00:11:10.825Z,1014.72
2018-08-30T00:12:11.398Z,1014.69
2018-08-30T00:13:32.264Z,1014.70
2018-08-30T00:14:54.262Z,1014.70
2018-08-30T00:15:54.890Z,1014.75
2018-08-30T00:16:54.561Z,1014.75
2018-08-30T00:18:15.733Z,1014.72
2018-08-30T00:19:16.534Z,1014.74
2018-08-30T00:20:16.093Z,1014.77
2018-08-30T00:21:16.602Z,1014.76
2018-08-30T00:22:16.283Z,1014.78
2018-08-30T00:23:15.817Z,1014.81
2018-08-30T00:24:16.433Z,1014.81
2018-08-30T00:25:15.879Z,1014.84
2018-08-30T00:26:16.283Z,1014.86
2018-08-30T00:27:37.168Z,1014.90
2018-08-30T00:28:37.559Z,1014.87
2018-08-30T00:29:38.063Z,1014.87
2018-08-30T00:30:37.497Z,1014.89
2018-08-30T00:31:37.907Z,1014.85
2018-08-30T00:32:37.549Z,1014.89
2018-08-30T00:33:38.113Z,1014.93
2018-08-30T00:34:37.781Z,1014.93
2018-08-30T00:35:37.381Z,1014.92
2018-08-30T00:36:38.048Z,1014.95
2018-08-30T00:37:37.719Z,1014.98
2018-08-30T00:38:38.341Z,1014.99
2018-08-30T00:39:37.962Z,1015.04
2018-08-30T00:40:37.664Z,1014.99
2018-08-30T00:41:58.793Z,1015.06
2018-08-30T00:42:59.269Z,1015.06
2018-08-30T00:43:59.609Z,1015.04
2018-08-30T00:44:59.213Z,1015.01
2018-08-30T00:45:59.169Z,1015.01
2018-08-30T00:46:58.988Z,1015.05
2018-08-30T00:47:59.609Z,1014.99
2018-08-30T00:48:59.104Z,1014.98
2018-08-30T00:49:58.739Z,1015.00
2018-08-30T00:51:20.744Z,1015.01
2018-08-30T00:52:21.327Z,1015.00
2018-08-30T00:53:20.789Z,1015.01
2018-08-30T00:54:21.358Z,1015.02
2018-08-30T00:55:20.828Z,1015.02
2018-08-30T00:56:21.260Z,1015.07
2018-08-30T00:57:20.956Z,1015.05
2018-08-30T00:58:21.427Z,1015.05
2018-08-30T00:59:21.034Z,1015.05
2018-08-30T01:00:21.576Z,1015.07
2018-08-30T01:01:21.245Z,1015.09
2018-08-30T01:02:21.047Z,1015.09
2018-08-30T01:03:21.697Z,1015.08
2018-08-30T01:04:21.333Z,1015.11
2018-08-30T01:05:21.041Z,1015.15
2018-08-30T01:07:06.372Z,1015.17
2018-08-30T01:08:28.238Z,1015.17
2018-08-30T01:09:28.880Z,1015.19
2018-08-30T01:10:28.384Z,1015.18
2018-08-30T01:11:28.910Z,1015.23
2018-08-30T01:12:28.549Z,1015.21
2018-08-30T01:13:29.087Z,1015.23
2018-08-30T01:14:28.714Z,1015.23
2018-08-30T01:15:29.294Z,1015.27
2018-08-30T01:16:28.856Z,1015.26
2018-08-30T01:17:28.346Z,1015.24
2018-08-30T01:18:28.963Z,1015.27
2018-08-30T01:19:28.536Z,1015.27
2018-08-30T01:20:49.582Z,1015.29
2018-08-30T01:21:50.505Z,1015.28
2018-08-30T01:22:50.128Z,1015.29
2018-08-30T01:23:49.652Z,1015.32
2018-08-30T01:24:50.107Z,1015.32
2018-08-30T01:25:49.561Z,1015.31
2018-08-30T01:26:50.275Z,1015.28
2018-08-30T01:27:49.921Z,1015.30
2018-08-30T01:28:49.650Z,1015.32
2018-08-30T01:29:50.384Z,1015.27
2018-08-30T01:30:49.878Z,1015.28
2018-08-30T01:32:11.934Z,1015.26
2018-08-30T01:33:12.443Z,1015.28
2018-08-30T01:34:11.893Z,1015.25
2018-08-30T01:35:12.371Z,1015.29
2018-08-30T01:36:11.812Z,1015.29
2018-08-30T01:37:12.427Z,1015.27
2018-08-30T01:38:12.143Z,1015.33
2018-08-30T01:39:12.726Z,1015.33
2018-08-30T01:40:12.362Z,1015.32
2018-08-30T01:41:12.100Z,1015.33
2018-08-30T01:42:12.718Z,1015.33
2018-08-30T01:43:12.262Z,1015.36
2018-08-30T01:44:12.577Z,1015.39
2018-08-30T01:45:12.001Z,1015.35
2018-08-30T01:46:12.511Z,1015.43
2018-08-30T01:47:11.989Z,1015.42
2018-08-30T01:48:12.528Z,1015.43
2018-08-30T01:49:12.152Z,1015.43
2018-08-30T01:50:33.742Z,1015.52
2018-08-30T01:51:34.256Z,1015.51
2018-08-30T01:52:34.446Z,1015.51
2018-08-30T01:53:33.953Z,1015.52
2018-08-30T01:54:34.914Z,1015.53
2018-08-30T01:55:55.677Z,1015.56
2018-08-30T01:57:17.374Z,1015.54
2018-08-30T01:58:39.560Z,1015.64
2018-08-30T01:59:40.281Z,1015.66
2018-08-30T02:01:01.622Z,1015.50
2018-08-30T02:02:02.062Z,1015.69
2018-08-30T02:03:02.614Z,1015.67
2018-08-30T02:04:02.245Z,1015.69
2018-08-30T02:05:02.014Z,1015.66
2018-08-30T02:06:01.851Z,1015.65
2018-08-30T02:07:02.347Z,1015.64
2018-08-30T02:08:01.641Z,1015.62
2018-08-30T02:09:02.141Z,1015.64
2018-08-30T02:10:01.879Z,1015.62
2018-08-30T02:11:01.752Z,1015.61
2018-08-30T02:12:02.495Z,1015.66
2018-08-30T02:13:02.033Z,1015.64
2018-08-30T02:14:02.577Z,1015.64
2018-08-30T02:15:01.883Z,1015.65
2018-08-30T02:16:02.531Z,1015.64
2018-08-30T02:17:02.202Z,1015.67
2018-08-30T02:18:01.652Z,1015.71
2018-08-30T02:19:02.260Z,1015.70
2018-08-30T02:20:22.963Z,1015.70
2018-08-30T02:21:23.691Z,1015.68
2018-08-30T02:22:23.258Z,1015.70
2018-08-30T02:23:23.752Z,1015.69
2018-08-30T02:24:23.471Z,1015.71
2018-08-30T02:25:22.992Z,1015.71
2018-08-30T02:26:23.722Z,1015.71
2018-08-30T02:27:23.195Z,1015.73
2018-08-30T02:28:22.783Z,1015.74
2018-08-30T02:29:23.562Z,1015.75
2018-08-30T02:30:23.115Z,1015.74
2018-08-30T02:31:45.443Z,1015.82
2018-08-30T02:32:46.300Z,1015.84
2018-08-30T02:33:46.170Z,1015.84
2018-08-30T02:34:45.762Z,1015.78
2018-08-30T02:35:45.237Z,1015.79
2018-08-30T02:36:46.111Z,1015.83
2018-08-30T02:37:45.997Z,1015.84
2018-08-30T02:39:07.429Z,1015.84
2018-08-30T02:40:28.799Z,1015.90
2018-08-30T02:41:29.626Z,1015.90
2018-08-30T02:42:29.360Z,1015.92
2018-08-30T02:43:29.214Z,1015.93
2018-08-30T02:44:28.926Z,1015.96
2018-08-30T02:45:29.619Z,1015.94
2018-08-30T02:46:29.261Z,1015.93
2018-08-30T02:47:30.107Z,1015.95
2018-08-30T02:48:29.944Z,1015.94
2018-08-30T02:49:29.756Z,1015.90
2018-08-30T02:50:29.440Z,1015.90
2018-08-30T02:51:50.655Z,1015.88
2018-08-30T02:52:51.304Z,1015.94
2018-08-30T02:53:51.206Z,1015.93
2018-08-30T02:54:50.605Z,1015.91
2018-08-30T02:55:51.499Z,1015.91
2018-08-30T02:56:51.119Z,1015.93
2018-08-30T02:57:50.815Z,1015.81
2018-08-30T02:58:51.447Z,1015.96
2018-08-30T02:59:50.977Z,1015.97
2018-08-30T03:00:50.668Z,1015.99
2018-08-30T03:02:02.023Z,1015.96
2018-08-30T03:02:51.027Z,1015.98
2018-08-30T03:03:50.583Z,1016.01
2018-08-30T03:04:51.102Z,1015.99
2018-08-30T03:05:50.745Z,1016.04
2018-08-30T03:07:21.459Z,1016.04
2018-08-30T03:08:22.343Z,1016.03
2018-08-30T03:09:22.075Z,1016.05
2018-08-30T03:10:43.341Z,1016.03
2018-08-30T03:11:44.041Z,1016.06
2018-08-30T03:12:43.777Z,1016.05
2018-08-30T03:13:43.404Z,1016.08
2018-08-30T03:14:43.852Z,1016.11
2018-08-30T03:15:43.600Z,1016.10
2018-08-30T03:16:44.080Z,1015.98
2018-08-30T03:17:43.762Z,1016.14
2018-08-30T03:18:43.513Z,1016.12
2018-08-30T03:19:44.295Z,1016.14
2018-08-30T03:20:43.867Z,1016.18
2018-08-30T03:21:43.643Z,1016.14
2018-08-30T03:23:05.663Z,1016.14
2018-08-30T03:24:06.572Z,1016.10
2018-08-30T03:25:27.418Z,1016.18
2018-08-30T03:26:27.982Z,1016.13
2018-08-30T03:27:28.461Z,1016.15
2018-08-30T03:28:28.224Z,1016.16
2018-08-30T03:29:27.838Z,1016.19
2018-08-30T03:30:28.770Z,1016.22
2018-08-30T03:31:49.993Z,1016.19
2018-08-30T03:32:50.608Z,1016.23
2018-08-30T03:33:50.212Z,1016.21
2018-08-30T03:34:49.743Z,1016.24
2018-08-30T03:36:11.453Z,1016.22
2018-08-30T03:37:12.180Z,1016.20
2018-08-30T03:38:11.908Z,1016.20
2018-08-30T03:39:11.864Z,1016.22
2018-08-30T03:40:12.336Z,1016.21
2018-08-30T03:41:11.863Z,1016.20
2018-08-30T03:42:11.511Z,1016.18
2018-08-30T03:43:12.152Z,1016.20
2018-08-30T03:44:12.194Z,1016.21
2018-08-30T03:45:11.715Z,1016.22
2018-08-30T03:46:33.741Z,1016.18
2018-08-30T03:47:34.322Z,1016.27
2018-08-30T03:48:55.405Z,1016.25
2018-08-30T03:49:55.914Z,1016.24
2018-08-30T03:50:55.751Z,1016.25
2018-08-30T03:51:55.365Z,1016.28
2018-08-30T03:52:56.175Z,1016.32
2018-08-30T03:53:56.029Z,1016.35
2018-08-30T03:54:55.632Z,1016.29
2018-08-30T03:55:55.307Z,1016.32
2018-08-30T03:56:55.949Z,1016.31
2018-08-30T03:57:55.434Z,1016.34
2018-08-30T03:58:55.015Z,1016.34
2018-08-30T03:59:55.587Z,1016.35
2018-08-30T04:01:16.675Z,1016.34
2018-08-30T04:02:38.951Z,1016.36
2018-08-30T04:03:39.533Z,1016.37
2018-08-30T04:04:39.960Z,1016.40
2018-08-30T04:05:39.616Z,1016.41
2018-08-30T04:06:39.300Z,1016.39
2018-08-30T04:08:00.635Z,1016.47
2018-08-30T04:09:22.908Z,1016.46
2018-08-30T04:10:44.394Z,1016.47
2018-08-30T04:11:45.307Z,1016.47
2018-08-30T04:13:06.546Z,1016.52
2018-08-30T04:14:07.513Z,1016.53
2018-08-30T04:15:07.073Z,1016.53
2018-08-30T04:16:06.836Z,1016.56
2018-08-30T04:17:06.466Z,1016.55
2018-08-30T04:18:06.991Z,1016.61
2018-08-30T04:19:49.498Z,1016.61
2018-08-30T04:20:50.100Z,1016.61
2018-08-30T04:21:49.701Z,1016.62
2018-08-30T04:22:50.259Z,1016.62
2018-08-30T04:23:49.928Z,1016.56
2018-08-30T04:24:49.969Z,1016.61
2018-08-30T04:25:49.704Z,1016.61
2018-08-30T04:26:50.647Z,1016.62
2018-08-30T04:27:50.343Z,1016.63
2018-08-30T04:28:50.017Z,1016.61
2018-08-30T04:29:49.810Z,1016.64
2018-08-30T04:30:50.294Z,1016.66
2018-08-30T04:31:49.911Z,1016.63
2018-08-30T04:32:49.686Z,1016.64
2018-08-30T04:33:50.417Z,1016.60
2018-08-30T04:35:11.747Z,1016.62
2018-08-30T04:36:12.541Z,1016.64
2018-08-30T04:37:12.029Z,1016.65
2018-08-30T04:38:12.709Z,1016.63
2018-08-30T04:39:12.319Z,1016.65
2018-08-30T04:40:12.176Z,1016.68
2018-08-30T04:41:12.055Z,1016.70
2018-08-30T04:42:11.873Z,1016.66
2018-08-30T04:43:12.479Z,1016.70
2018-08-30T04:44:12.050Z,1016.67
2018-08-30T04:45:12.670Z,1016.68
2018-08-30T04:46:12.462Z,1016.70
2018-08-30T04:47:12.210Z,1016.69
2018-08-30T04:48:12.153Z,1016.67
2018-08-30T04:49:12.715Z,1016.68
2018-08-30T04:50:12.444Z,1016.67
2018-08-30T04:52:16.252Z,1016.75
2018-08-30T04:53:16.804Z,1016.67
2018-08-30T04:54:16.862Z,1016.74
2018-08-30T04:55:38.149Z,1016.71
2018-08-30T04:56:38.813Z,1016.72
2018-08-30T04:57:38.451Z,1016.74
2018-08-30T04:58:38.869Z,1016.74
2018-08-30T05:00:22.425Z,1016.75
2018-08-30T05:01:22.426Z,1016.79
2018-08-30T05:02:22.193Z,1016.78
2018-08-30T05:03:22.789Z,1016.82
2018-08-30T05:04:44.364Z,1016.85
2018-08-30T05:05:45.008Z,1016.83
2018-08-30T05:06:45.386Z,1016.86
2018-08-30T05:07:45.333Z,1016.90
2018-08-30T05:08:45.141Z,1016.91
2018-08-30T05:10:50.107Z,1016.94
2018-08-30T05:11:50.770Z,1016.94
2018-08-30T05:12:50.810Z,1016.93
2018-08-30T05:13:50.436Z,1016.95
2018-08-30T05:14:50.085Z,1016.93
2018-08-30T05:15:50.873Z,1016.91
2018-08-30T05:16:50.947Z,1016.95
2018-08-30T05:17:50.912Z,1016.92
2018-08-30T05:18:50.917Z,1016.94
2018-08-30T05:19:50.534Z,1016.94
2018-08-30T05:20:50.406Z,1016.97
2018-08-30T05:21:50.045Z,1017.03
2018-08-30T05:22:49.912Z,1017.00
2018-08-30T05:23:50.679Z,1016.95
2018-08-30T05:24:50.447Z,1017.03
2018-08-30T05:25:50.308Z,1017.03
2018-08-30T05:26:50.670Z,1017.03
2018-08-30T05:27:51.250Z,1017.01
2018-08-30T05:28:50.108Z,1017.04
2018-08-30T05:29:50.681Z,1017.03
2018-08-30T05:30:52.491Z,1017.02
2018-08-30T05:31:50.172Z,1017.00
2018-08-30T05:33:11.631Z,1017.05
2018-08-30T05:34:13.677Z,1017.06
2018-08-30T05:35:11.595Z,1017.06
2018-08-30T05:36:12.399Z,1017.10
2018-08-30T05:37:13.667Z,1017.08
2018-08-30T05:38:11.494Z,1017.16
2018-08-30T05:39:36.171Z,1017.20
2018-08-30T05:40:36.114Z,1017.19
2018-08-30T05:41:37.148Z,1017.19
2018-08-30T05:42:37.041Z,1017.20
2018-08-30T05:43:59.174Z,1017.28
2018-08-30T05:44:58.931Z,1017.28
2018-08-30T05:45:58.732Z,1017.30
2018-08-30T05:47:20.818Z,1017.28
2018-08-30T05:48:21.784Z,1017.26
2018-08-30T05:49:21.618Z,1017.27
2018-08-30T05:50:21.511Z,1017.31
2018-08-30T05:51:21.281Z,1017.33
2018-08-30T05:52:21.867Z,1017.37
2018-08-30T05:53:21.895Z,1017.33
2018-08-30T05:54:21.728Z,1017.37
2018-08-30T05:55:21.556Z,1017.39
2018-08-30T05:56:21.203Z,1017.35
2018-08-30T05:57:21.587Z,1017.37
2018-08-30T05:58:21.497Z,1017.44
2018-08-30T06:00:27.118Z,1017.45
2018-08-30T06:01:28.959Z,1017.45
2018-08-30T06:02:27.500Z,1017.48
2018-08-30T06:03:27.469Z,1017.48
2018-08-30T06:04:27.494Z,1017.48
2018-08-30T06:05:27.407Z,1017.48
2018-08-30T06:06:49.145Z,1017.46
2018-08-30T06:07:50.016Z,1017.48
2018-08-30T06:08:49.787Z,1017.50
2018-08-30T06:09:49.557Z,1017.51
2018-08-30T06:10:49.386Z,1017.52
2018-08-30T06:11:49.114Z,1017.54
2018-08-30T06:12:50.192Z,1017.48
2018-08-30T06:13:49.879Z,1017.49
2018-08-30T06:14:50.636Z,1017.49
2018-08-30T06:15:49.747Z,1017.52
2018-08-30T06:16:50.676Z,1017.51
2018-08-30T06:17:49.781Z,1017.55
2018-08-30T06:21:00.193Z,1017.55
2018-08-30T06:22:01.548Z,1017.56
2018-08-30T06:23:00.684Z,1017.55
2018-08-30T06:24:00.352Z,1017.57
2018-08-30T06:25:23.040Z,1017.57
2018-08-30T06:26:23.614Z,1017.61
2018-08-30T06:27:23.346Z,1017.57
2018-08-30T06:28:23.242Z,1017.63
2018-08-30T06:29:23.272Z,1017.68
2018-08-30T06:30:45.001Z,1017.70
2018-08-30T06:31:45.027Z,1017.68
2018-08-30T06:32:45.228Z,1017.74
2018-08-30T06:33:45.361Z,1017.76
2018-08-30T06:34:45.357Z,1017.78
2018-08-30T06:35:45.545Z,1017.81
2018-08-30T06:37:12.004Z,1017.80
2018-08-30T06:38:13.140Z,1017.79
2018-08-30T06:39:12.411Z,1017.81
2018-08-30T06:40:32.534Z,1017.81
2018-08-30T06:41:33.235Z,1017.85
2018-08-30T06:42:33.418Z,1017.84
2018-08-30T06:43:33.615Z,1017.86
2018-08-30T06:44:32.905Z,1017.86
2018-08-30T06:45:56.378Z,1017.88
2018-08-30T06:46:57.118Z,1017.85
2018-08-30T06:47:56.882Z,1017.84
2018-08-30T06:49:18.589Z,1017.84
2018-08-30T06:50:19.475Z,1017.87
2018-08-30T06:51:22.133Z,1017.87
2018-08-30T06:52:19.292Z,1017.89
2018-08-30T06:53:19.856Z,1017.89
2018-08-30T06:54:43.431Z,1017.93
2018-08-30T06:55:44.207Z,1017.90
2018-08-30T06:56:43.529Z,1017.91
2018-08-30T06:57:43.108Z,1017.90
2018-08-30T06:59:04.769Z,1017.92
2018-08-30T07:00:05.637Z,1017.95
2018-08-30T07:01:05.611Z,1017.90
2018-08-30T07:02:05.476Z,1017.96
2018-08-30T07:03:05.553Z,1018.00
2018-08-30T07:04:51.359Z,1017.98
2018-08-30T07:05:51.272Z,1018.02
2018-08-30T07:07:16.362Z,1018.00
2018-08-30T07:08:16.400Z,1018.03
2018-08-30T07:09:16.245Z,1018.04
2018-08-30T07:10:17.045Z,1018.03
2018-08-30T07:11:16.766Z,1018.07
2018-08-30T07:12:16.514Z,1018.10
2018-08-30T07:13:16.722Z,1018.07
2018-08-30T07:14:16.506Z,1018.09
2018-08-30T07:16:01.447Z,1018.11
2018-08-30T07:17:02.322Z,1018.10
2018-08-30T07:18:02.303Z,1018.16
2018-08-30T07:19:02.182Z,1018.16
2018-08-30T07:20:02.067Z,1018.15
2018-08-30T07:21:01.901Z,1018.15
2018-08-30T07:22:23.084Z,1018.17
2018-08-30T07:23:45.741Z,1018.19
2018-08-30T07:24:45.867Z,1018.21
2018-08-30T07:25:45.905Z,1018.24
2018-08-30T07:26:45.472Z,1018.24
2018-08-30T07:27:45.395Z,1018.24
2018-08-30T07:28:46.520Z,1018.27
2018-08-30T07:29:46.415Z,1018.28
2018-08-30T07:30:46.321Z,1018.27
2018-08-30T07:31:46.666Z,1018.11
2018-08-30T07:32:45.944Z,1018.27
2018-08-30T07:33:45.701Z,1018.27
2018-08-30T07:34:45.930Z,1018.31
2018-08-30T07:36:07.111Z,1018.27
2018-08-30T07:37:29.935Z,1018.32
2018-08-30T07:38:31.193Z,1018.29
2018-08-30T07:39:30.080Z,1018.35
2018-08-30T07:40:30.900Z,1018.36
2018-08-30T07:41:31.333Z,1018.38
2018-08-30T07:42:30.041Z,1018.38
2018-08-30T07:43:30.627Z,1018.41
2018-08-30T07:44:53.983Z,1018.45
2018-08-30T07:45:54.693Z,1018.38
2018-08-30T07:47:22.424Z,1018.41
2018-08-30T07:48:41.221Z,1018.42
2018-08-30T07:49:41.768Z,1018.41
2018-08-30T07:50:42.349Z,1018.45
2018-08-30T07:51:41.540Z,1018.48
2018-08-30T07:52:41.377Z,1018.45
2018-08-30T07:53:41.282Z,1018.48
2018-08-30T07:55:02.688Z,1018.45
2018-08-30T07:56:03.543Z,1018.47
2018-08-30T07:57:03.300Z,1018.46
2018-08-30T07:58:02.949Z,1018.46
2018-08-30T07:59:02.956Z,1018.50
2018-08-30T08:00:03.145Z,1018.45
2018-08-30T08:01:03.431Z,1018.49
2018-08-30T08:02:46.099Z,1018.47
2018-08-30T08:04:08.447Z,1018.49
2018-08-30T08:05:31.248Z,1018.50
2018-08-30T08:06:31.352Z,1018.44
2018-08-30T08:08:14.755Z,1018.44
2018-08-30T08:09:15.908Z,1018.48
2018-08-30T08:10:14.925Z,1018.50
2018-08-30T08:11:15.093Z,1018.52
2018-08-30T08:12:15.244Z,1018.55
2018-08-30T08:13:15.145Z,1018.57
2018-08-30T08:14:15.076Z,1018.59
2018-08-30T08:15:14.955Z,1018.54
2018-08-30T08:16:14.585Z,1018.58
2018-08-30T08:17:15.524Z,1018.61
2018-08-30T08:18:36.929Z,1018.63
2018-08-30T08:19:37.564Z,1018.64
2018-08-30T08:20:37.388Z,1018.63
2018-08-30T08:21:37.137Z,1018.62
2018-08-30T08:22:37.397Z,1018.70
2018-08-30T08:23:37.218Z,1018.69
2018-08-30T08:24:36.994Z,1018.66
2018-08-30T08:25:37.930Z,1018.69
2018-08-30T08:26:59.822Z,1018.72
2018-08-30T08:28:00.486Z,1018.74
2018-08-30T08:29:00.681Z,1018.77
2018-08-30T08:29:59.779Z,1018.73
2018-08-30T08:30:59.863Z,1018.72
2018-08-30T08:33:04.585Z,1018.67
2018-08-30T08:34:04.909Z,1018.70
2018-08-30T08:35:05.009Z,1018.75
2018-08-30T08:36:04.945Z,1018.68
2018-08-30T08:37:05.033Z,1018.76
2018-08-30T08:38:04.937Z,1018.75
2018-08-30T08:39:05.008Z,1018.70
2018-08-30T08:40:05.031Z,1018.68
2018-08-30T08:41:26.962Z,1018.66
2018-08-30T08:42:26.711Z,1018.71
2018-08-30T08:43:28.103Z,1018.74
2018-08-30T08:44:27.329Z,1018.71
2018-08-30T08:45:26.815Z,1018.72
2018-08-30T08:46:26.502Z,1018.68
2018-08-30T08:47:27.275Z,1018.72
2018-08-30T08:48:26.818Z,1018.74
2018-08-30T08:49:26.610Z,1018.75
2018-08-30T08:50:27.379Z,1018.74
2018-08-30T08:51:27.168Z,1018.82
2018-08-30T08:52:27.096Z,1018.82
2018-08-30T08:53:26.901Z,1018.81
2018-08-30T08:54:26.604Z,1018.82
2018-08-30T08:55:27.686Z,1018.80
2018-08-30T08:56:27.333Z,1018.84
2018-08-30T08:57:48.979Z,1018.86
2018-08-30T08:59:10.327Z,1018.87
2018-08-30T09:00:31.825Z,1018.89
2018-08-30T09:01:32.860Z,1018.88
2018-08-30T09:02:33.068Z,1018.89
2018-08-30T09:03:31.766Z,1018.92
2018-08-30T09:04:32.881Z,1018.88
2018-08-30T09:05:32.965Z,1018.87
2018-08-30T09:06:53.293Z,1018.95
2018-08-30T09:07:53.869Z,1018.87
2018-08-30T09:08:53.700Z,1018.93
2018-08-30T09:09:53.813Z,1018.96
2018-08-30T09:10:53.705Z,1018.97
2018-08-30T09:11:53.987Z,1018.94
2018-08-30T09:12:54.202Z,1018.99
2018-08-30T09:13:54.443Z,1019.00
2018-08-30T09:15:16.400Z,1018.93
2018-08-30T09:16:46.720Z,1018.96
2018-08-30T09:18:05.388Z,1019.01
2018-08-30T09:19:10.056Z,1019.00
2018-08-30T09:20:28.196Z,1018.89
2018-08-30T09:21:52.173Z,1019.03
2018-08-30T09:22:52.361Z,1018.96
2018-08-30T09:23:52.310Z,1019.00
2018-08-30T09:24:52.671Z,1018.94
2018-08-30T09:25:53.009Z,1018.93
2018-08-30T09:26:51.953Z,1018.97
2018-08-30T09:27:52.096Z,1018.97
2018-08-30T09:28:52.115Z,1018.88
2018-08-30T09:29:52.538Z,1018.94
2018-08-30T09:31:37.004Z,1018.84
2018-08-30T09:32:37.210Z,1018.83
2018-08-30T09:33:37.895Z,1018.85
2018-08-30T09:34:59.787Z,1018.80
2018-08-30T09:35:59.856Z,1018.82
2018-08-30T09:37:00.096Z,1018.82
2018-08-30T09:37:59.926Z,1018.79
2018-08-30T09:38:59.860Z,1018.82
2018-08-30T09:39:59.829Z,1018.85
2018-08-30T09:41:21.283Z,1018.86
2018-08-30T09:42:22.375Z,1018.89
2018-08-30T09:43:22.433Z,1018.91
2018-08-30T09:44:21.433Z,1018.81
2018-08-30T09:45:21.582Z,1018.88
2018-08-30T09:46:21.511Z,1018.80
2018-08-30T09:47:21.387Z,1018.83
2018-08-30T09:48:21.474Z,1018.84
2018-08-30T09:49:21.318Z,1018.81
2018-08-30T09:50:21.107Z,1018.75
2018-08-30T09:51:22.136Z,1018.83
2018-08-30T09:52:22.334Z,1018.85
2018-08-30T09:53:22.383Z,1018.89
2018-08-30T09:54:21.447Z,1018.85
2018-08-30T09:55:21.232Z,1018.77
2018-08-30T09:56:22.373Z,1018.81
2018-08-30T09:57:21.479Z,1018.83
2018-08-30T09:58:21.539Z,1018.75
2018-08-30T09:59:21.066Z,1018.88
2018-08-30T10:00:22.050Z,1018.90
2018-08-30T10:01:22.313Z,1018.84
2018-08-30T10:02:21.593Z,1018.87
2018-08-30T10:03:21.629Z,1018.84
2018-08-30T10:04:21.438Z,1018.77
2018-08-30T10:05:43.283Z,1018.70
2018-08-30T10:06:44.515Z,1018.83
2018-08-30T10:08:05.172Z,1018.86
2018-08-30T10:09:27.919Z,1018.89
2018-08-30T10:10:48.979Z,1018.93
2018-08-30T10:11:49.563Z,1018.86
2018-08-30T10:12:49.581Z,1018.92
2018-08-30T10:13:49.512Z,1018.87
2018-08-30T10:14:49.394Z,1018.87
2018-08-30T10:15:49.668Z,1018.87
2018-08-30T10:16:50.174Z,1018.79
2018-08-30T10:18:11.755Z,1018.79
2018-08-30T10:19:12.790Z,1018.94
2018-08-30T10:20:12.511Z,1018.89
2018-08-30T10:21:12.509Z,1018.87
2018-08-30T10:22:12.562Z,1018.87
2018-08-30T10:23:35.744Z,1018.77
2018-08-30T10:24:36.541Z,1018.84
2018-08-30T10:25:41.136Z,1018.79
2018-08-30T10:26:58.655Z,1018.78
2018-08-30T10:27:59.373Z,1018.76
2018-08-30T10:28:59.703Z,1018.74
2018-08-30T10:29:58.881Z,1018.68
2018-08-30T10:30:59.020Z,1018.76
2018-08-30T10:32:05.862Z,1018.70
2018-08-30T10:32:59.743Z,1018.78
2018-08-30T10:34:30.267Z,1018.86
2018-08-30T10:35:31.015Z,1018.84
2018-08-30T10:36:30.928Z,1018.82
2018-08-30T10:37:31.083Z,1018.82
2018-08-30T10:38:30.639Z,1018.79
2018-08-30T10:39:30.825Z,1018.69
2018-08-30T10:40:32.723Z,1018.79
2018-08-30T10:41:31.377Z,1018.72
2018-08-30T10:42:31.544Z,1018.75
2018-08-30T10:43:33.581Z,1018.80
2018-08-30T10:44:32.244Z,1018.76
2018-08-30T10:45:30.408Z,1018.71
2018-08-30T10:46:32.718Z,1018.78
2018-08-30T10:47:31.256Z,1018.80
2018-08-30T10:48:31.021Z,1018.81
2018-08-30T10:49:31.589Z,1018.78
2018-08-30T10:50:30.962Z,1018.75
2018-08-30T10:51:30.703Z,1018.79
2018-08-30T10:52:30.733Z,1018.74
2018-08-30T10:53:32.202Z,1018.69
2018-08-30T10:54:31.093Z,1018.72
2018-08-30T10:55:36.652Z,1018.73
2018-08-30T10:56:37.017Z,1018.73
2018-08-30T10:57:36.690Z,1018.81
2018-08-30T10:58:36.248Z,1018.96
2018-08-30T10:59:31.446Z,1018.92
2018-08-30T11:00:53.312Z,1018.91
2018-08-30T11:01:52.600Z,1018.79
2018-08-30T11:02:52.292Z,1018.84
2018-08-30T11:03:52.425Z,1018.91
2018-08-30T11:04:53.296Z,1018.95
2018-08-30T11:05:52.304Z,1018.89
2018-08-30T11:06:53.848Z,1018.94
2018-08-30T11:07:52.669Z,1019.05
2018-08-30T11:09:37.754Z,1018.95
2018-08-30T11:10:37.393Z,1018.92
2018-08-30T11:11:38.575Z,1018.98
2018-08-30T11:12:37.247Z,1018.98
2018-08-30T11:13:38.155Z,1018.93
2018-08-30T11:14:59.789Z,1018.99
2018-08-30T11:16:00.684Z,1019.00
2018-08-30T11:17:00.550Z,1019.02
2018-08-30T11:18:00.263Z,1018.98
2018-08-30T11:18:59.968Z,1019.00
2018-08-30T11:20:00.786Z,1018.96
2018-08-30T11:21:43.738Z,1018.96
2018-08-30T11:22:43.534Z,1018.96
2018-08-30T11:23:43.585Z,1018.89
2018-08-30T11:25:05.055Z,1018.97
2018-08-30T11:26:27.830Z,1018.95
2018-08-30T11:28:32.089Z,1019.06
2018-08-30T11:29:33.137Z,1019.05
2018-08-30T11:30:33.352Z,1019.03
2018-08-30T11:31:33.060Z,1019.14
2018-08-30T11:32:33.381Z,1019.11
2018-08-30T11:33:33.097Z,1019.18
2018-08-30T11:34:32.773Z,1019.18
2018-08-30T11:35:32.430Z,1019.22
2018-08-30T11:36:33.013Z,1019.37
2018-08-30T11:37:32.747Z,1019.26
2018-08-30T11:38:34.605Z,1019.30
2018-08-30T11:39:32.356Z,1019.39
2018-08-30T11:40:33.026Z,1019.56
2018-08-30T11:42:16.117Z,1019.68
2018-08-30T11:43:16.803Z,1019.67
2018-08-30T11:44:16.685Z,1019.75
2018-08-30T11:45:38.236Z,1019.69
2018-08-30T11:47:23.575Z,1019.73
2018-08-30T11:48:24.468Z,1019.77
2018-08-30T11:49:24.661Z,1019.80
2018-08-30T11:50:25.097Z,1019.81
2018-08-30T11:51:23.956Z,1019.82
2018-08-30T11:52:23.838Z,1019.82
2018-08-30T11:53:23.851Z,1019.83
2018-08-30T11:54:23.672Z,1019.77
2018-08-30T11:55:24.928Z,1019.78
2018-08-30T11:56:23.825Z,1019.83
2018-08-30T11:57:46.034Z,1019.85
2018-08-30T11:58:47.425Z,1019.85
2018-08-30T11:59:46.342Z,1019.82
2018-08-30T12:00:46.199Z,1019.81
2018-08-30T12:01:46.613Z,1019.85
2018-08-30T12:02:47.029Z,1019.85
2018-08-30T12:04:08.567Z,1019.83
2018-08-30T12:05:09.528Z,1019.85
2018-08-30T12:06:09.443Z,1019.87
2018-08-30T12:07:09.302Z,1019.88
2018-08-30T12:08:31.118Z,1019.88
2018-08-30T12:09:31.387Z,1019.84
2018-08-30T12:10:31.564Z,1019.88
2018-08-30T12:11:32.059Z,1019.91
2018-08-30T12:13:18.369Z,1019.82
2018-08-30T12:14:19.338Z,1019.79
2018-08-30T12:15:19.286Z,1019.78
2018-08-30T12:16:19.684Z,1019.73
2018-08-30T12:17:18.727Z,1019.76
2018-08-30T12:18:18.885Z,1019.77
2018-08-30T12:19:18.981Z,1019.70
2018-08-30T12:20:18.989Z,1019.69
2018-08-30T12:21:18.944Z,1019.73
2018-08-30T12:22:18.932Z,1019.71
2018-08-30T12:23:19.135Z,1019.71
2018-08-30T12:24:19.139Z,1019.72
2018-08-30T12:25:18.955Z,1019.74
2018-08-30T12:26:18.785Z,1019.69
2018-08-30T12:27:18.633Z,1019.68
2018-08-30T12:28:18.611Z,1019.71
2018-08-30T12:29:18.831Z,1019.56
2018-08-30T12:30:20.532Z,1019.66
2018-08-30T12:31:20.200Z,1019.65
2018-08-30T12:32:19.552Z,1019.63
2018-08-30T12:33:18.464Z,1019.64
2018-08-30T12:34:18.520Z,1019.63
2018-08-30T12:35:19.339Z,1019.63
2018-08-30T12:36:18.628Z,1019.54
2018-08-30T12:37:18.572Z,1019.52
2018-08-30T12:38:18.837Z,1019.47
2018-08-30T12:39:20.194Z,1019.56
2018-08-30T12:40:19.185Z,1019.64
2018-08-30T12:41:19.216Z,1019.65
2018-08-30T12:43:02.698Z,1019.70
2018-08-30T12:44:03.036Z,1019.68
2018-08-30T12:45:03.051Z,1019.72
2018-08-30T12:46:03.120Z,1019.76
2018-08-30T12:47:04.421Z,1019.77
2018-08-30T12:48:03.464Z,1019.80
2018-08-30T12:49:04.248Z,1019.77
2018-08-30T12:50:03.404Z,1019.76
2018-08-30T12:51:03.468Z,1019.76
2018-08-30T12:52:03.348Z,1019.81
2018-08-30T12:53:03.438Z,1019.85
2018-08-30T12:54:02.879Z,1019.82
2018-08-30T12:55:02.954Z,1019.86
2018-08-30T12:56:03.032Z,1019.92
2018-08-30T12:57:03.325Z,1020.00
2018-08-30T12:58:02.618Z,1020.08
2018-08-30T12:59:02.779Z,1020.05